Mitteilungen von WXBOT - Kartenansicht · Info · Telemetrie · Wetter · Rohdaten · Status · Baken · Mitteilungen · Nachrichten · durchsuchen · bewegend · Mein Benutzerkonto
Rufzeichen:
Zeige:

Lade message Pakete...

APRS Mitteilungen werden für 14 Tage gespeichert. Es ist möglich bei der Suche einen Platzhalter (*?) nach dem Präfix zu verwenden.

2021-06-24 21:55:55 EDT: WXBOT>AA4JM-9: KTIX 250047Z 01005KT 7SM FEW020 BKN110 28/23 A3012
2021-06-24 21:56:38 EDT: AA4JM-9>WXBOT: kmlb
2021-06-24 21:56:44 EDT: WXBOT>AA4JM-9: KMLB 250153Z 03005KT 10SM BKN075 27/24 A3012 RMK AO2 LTG DSNT S SLP
2021-06-24 21:56:49 EDT: WXBOT>AA4JM-9: 199 T02670239
2021-06-24 22:44:42 EDT: VK3YPE-15>WXBOT: YMML
2021-06-24 22:44:43 EDT: WXBOT>VK3YPE-15: YMML 250230Z 29008KT 7000 FEW008 SCT028 BKN043 12/10 Q1011
2021-06-24 23:51:45 EDT: AF4Y-7>WXBOT: Today
2021-06-24 23:51:52 EDT: WXBOT>AF4Y-7: Letcher KY. Tonight,Mostly Clear Low 59
2021-06-24 23:52:17 EDT: AF4Y-7>WXBOT: Tomorrow
2021-06-24 23:52:23 EDT: WXBOT>AF4Y-7: Letcher KY. Friday,Mostly Sunny High 86
2021-06-24 23:53:03 EDT: AF4Y-7>WXBOT: Saturday
2021-06-24 23:53:10 EDT: WXBOT>AF4Y-7: Letcher KY. Saturday,Mostly Sunny High 88
2021-06-24 23:53:31 EDT: AF4Y-7>WXBOT: 41858
2021-06-24 23:53:37 EDT: WXBOT>AF4Y-7: 2 Miles NW Whitesburg KY. Tonight,Mostly Clear Low 60
2021-06-24 23:54:05 EDT: AF4Y-7>WXBOT: Lex
2021-06-24 23:54:11 EDT: WXBOT>AF4Y-7: KLEX 250254Z 14007KT 10SM CLR 23/17 A3013 RMK AO2 SLP193 T02280172
2021-06-24 23:54:16 EDT: WXBOT>AF4Y-7: 51003 $
2021-06-24 23:54:35 EDT: AF4Y-7>WXBOT: Ky4cat
2021-06-24 23:54:42 EDT: WXBOT>AF4Y-7: Letcher KY. Tonight,Mostly Clear Low 59
2021-06-25 00:09:40 EDT: K0WAV-7>WXBOT: woodland park co sat full
2021-06-25 00:09:47 EDT: WXBOT>K0WAV-7: 3 Miles NNW San Jose International Airport CA. Saturday,Sunny, with
2021-06-25 00:09:52 EDT: WXBOT>K0WAV-7: a high near 84. Northwest wind 5 to 14 mph, with gusts as high as
2021-06-25 00:09:57 EDT: WXBOT>K0WAV-7: 18 mph.
2021-06-25 00:12:46 EDT: AF4Y-7>WXBOT: 41848
2021-06-25 00:12:52 EDT: WXBOT>AF4Y-7: Roxana KY. Overnight,Mostly Clear Low 60
2021-06-25 00:13:21 EDT: AF4Y-7>WXBOT: 41848 saturday
2021-06-25 00:13:27 EDT: WXBOT>AF4Y-7: Roxana KY. Saturday,Mostly Sunny High 86
2021-06-25 00:14:02 EDT: AF4Y-7>WXBOT: 41848 tomorrow
2021-06-25 00:14:09 EDT: WXBOT>AF4Y-7: Roxana KY. Friday Night,Partly Cloudy Low 61
2021-06-25 00:14:31 EDT: AF4Y-7>WXBOT: 41848 today
2021-06-25 00:14:37 EDT: WXBOT>AF4Y-7: Roxana KY. Overnight,Mostly Clear Low 60
2021-06-25 00:31:26 EDT: K0WAV-10>WXBOT: 39.08272/-105.09415 sat full
2021-06-25 00:31:27 EDT: WXBOT>K0WAV-10: 6 Miles SE Westcreek CO. Hazardous Weather Outlook, Saturday,Shower
2021-06-25 00:31:32 EDT: WXBOT>K0WAV-10: s and possibly a thunderstorm. High near 63. North northeast wind
2021-06-25 00:31:37 EDT: WXBOT>K0WAV-10: 5 to 10 mph. Chance of precipitation is 80%. New rainfall amounts
2021-06-25 00:31:42 EDT: WXBOT>K0WAV-10: between a quarter and half of an inch possible.
2021-06-25 00:32:08 EDT: K0WAV-10>WXBOT: 39.08272/-105.09415 sat night full
2021-06-25 00:32:09 EDT: WXBOT>K0WAV-10: 6 Miles SE Westcreek CO. Hazardous Weather Outlook, Saturday Night,
2021-06-25 00:32:14 EDT: WXBOT>K0WAV-10: Showers and thunderstorms likely before 9pm, then showers likely an
2021-06-25 00:32:19 EDT: WXBOT>K0WAV-10: d possibly a thunderstorm between 9pm and midnight, then a chance o
2021-06-25 00:32:24 EDT: WXBOT>K0WAV-10: f showers and thunderstorms after midnight. Mostly cloudy, with a
2021-06-25 00:32:29 EDT: WXBOT>K0WAV-10: low around 48. North northwest wind 5 to 10 mph. Chance of precipi
2021-06-25 00:32:34 EDT: WXBOT>K0WAV-10: tation is 60%. New rainfall amounts between a quarter and half of a
2021-06-25 00:32:39 EDT: WXBOT>K0WAV-10: n inch possible.
2021-06-25 01:06:38 EDT: K0WAV-10>WXBOT: FD2021 Sat Full
2021-06-25 01:06:41 EDT: WXBOT>K0WAV-10: Highlands Ranch CO. Hazardous Weather Outlook, Saturday,A chance of
2021-06-25 01:06:46 EDT: WXBOT>K0WAV-10: showers and thunderstorms, then showers likely and possibly a thun
2021-06-25 01:06:51 EDT: WXBOT>K0WAV-10: derstorm after noon. Partly sunny, with a high near 71. West wind
2021-06-25 01:06:56 EDT: WXBOT>K0WAV-10: 5 to 8 mph becoming north in the morning. Winds could gust as high
2021-06-25 01:07:01 EDT: WXBOT>K0WAV-10: as 18 mph. Chance of precipitation is 60%.
< vorhergehender
User guide · FAQ · Blog · Diskussionsgruppe · Link zu aprs.fi · AIS-Sites · Status des Servers · Datenbank Statistiken · Werbe auf aprs.fi · Technische Details · API · Änderungen · geplante Änderungen · Dank an · Nutzungsbedingungen · iPhone/iPad APRS